sensor_id;sensor_type;location;lat;lon;timestamp;temperature;humidity
18191;DHT22;47004;51.366;12.348;2024-03-02T00:01:36;6.90;99.90
18191;DHT22;47004;51.366;12.348;2024-03-02T00:03:38;6.90;99.90
18191;DHT22;47004;51.366;12.348;2024-03-02T00:05:41;6.90;99.90
18191;DHT22;47004;51.366;12.348;2024-03-02T00:07:44;6.90;99.90
18191;DHT22;47004;51.366;12.348;2024-03-02T00:09:46;6.90;99.90
18191;DHT22;47004;51.366;12.348;2024-03-02T00:11:48;6.90;99.90
18191;DHT22;47004;51.366;12.348;2024-03-02T00:13:52;6.90;99.90
18191;DHT22;47004;51.366;12.348;2024-03-02T00:15:56;6.90;99.90
18191;DHT22;47004;51.366;12.348;2024-03-02T00:17:58;6.90;99.90
18191;DHT22;47004;51.366;12.348;2024-03-02T00:20:00;6.90;99.90
18191;DHT22;47004;51.366;12.348;2024-03-02T00:22:06;6.90;99.90
18191;DHT22;47004;51.366;12.348;2024-03-02T00:24:19;6.90;99.90
18191;DHT22;47004;51.366;12.348;2024-03-02T00:26:22;6.90;99.90
18191;DHT22;47004;51.366;12.348;2024-03-02T00:28:24;6.90;99.90
18191;DHT22;47004;51.366;12.348;2024-03-02T00:31:01;6.90;99.90
18191;DHT22;47004;51.366;12.348;2024-03-02T00:33:06;6.90;99.90
18191;DHT22;47004;51.366;12.348;2024-03-02T00:35:07;6.90;99.90
18191;DHT22;47004;51.366;12.348;2024-03-02T00:37:11;6.90;99.90
18191;DHT22;47004;51.366;12.348;2024-03-02T00:39:18;6.90;99.90
18191;DHT22;47004;51.366;12.348;2024-03-02T00:41:22;6.90;99.90
18191;DHT22;47004;51.366;12.348;2024-03-02T00:43:47;6.90;99.90
18191;DHT22;47004;51.366;12.348;2024-03-02T00:45:49;6.90;99.90
18191;DHT22;47004;51.366;12.348;2024-03-02T00:47:55;6.90;99.90
18191;DHT22;47004;51.366;12.348;2024-03-02T00:49:57;6.80;99.90
18191;DHT22;47004;51.366;12.348;2024-03-02T00:51:59;6.90;99.90
18191;DHT22;47004;51.366;12.348;2024-03-02T00:54:03;6.80;99.90
18191;DHT22;47004;51.366;12.348;2024-03-02T00:56:09;6.90;99.90
18191;DHT22;47004;51.366;12.348;2024-03-02T00:58:12;6.80;99.90
18191;DHT22;47004;51.366;12.348;2024-03-02T01:00:14;6.90;99.90
18191;DHT22;47004;51.366;12.348;2024-03-02T01:02:18;6.80;99.90
18191;DHT22;47004;51.366;12.348;2024-03-02T01:04:22;6.90;99.90
18191;DHT22;47004;51.366;12.348;2024-03-02T01:06:24;6.80;99.90
18191;DHT22;47004;51.366;12.348;2024-03-02T01:08:26;6.70;99.90
18191;DHT22;47004;51.366;12.348;2024-03-02T01:10:27;6.80;99.90
18191;DHT22;47004;51.366;12.348;2024-03-02T01:12:29;6.80;99.90
18191;DHT22;47004;51.366;12.348;2024-03-02T01:14:31;6.80;99.90
18191;DHT22;47004;51.366;12.348;2024-03-02T01:16:33;6.80;99.90
18191;DHT22;47004;51.366;12.348;2024-03-02T01:18:35;6.80;99.90
18191;DHT22;47004;51.366;12.348;2024-03-02T01:20:38;6.80;99.90
18191;DHT22;47004;51.366;12.348;2024-03-02T01:22:40;6.70;99.90
18191;DHT22;47004;51.366;12.348;2024-03-02T01:24:42;6.70;99.90
18191;DHT22;47004;51.366;12.348;2024-03-02T01:26:44;6.70;99.90
18191;DHT22;47004;51.366;12.348;2024-03-02T01:28:46;6.70;99.90
18191;DHT22;47004;51.366;12.348;2024-03-02T01:30:48;6.70;99.90
18191;DHT22;47004;51.366;12.348;2024-03-02T01:32:49;6.70;99.90
18191;DHT22;47004;51.366;12.348;2024-03-02T01:34:51;6.70;99.90
18191;DHT22;47004;51.366;12.348;2024-03-02T01:36:54;6.70;99.90
18191;DHT22;47004;51.366;12.348;2024-03-02T01:38:56;6.70;99.90
18191;DHT22;47004;51.366;12.348;2024-03-02T01:40:58;6.70;99.90
18191;DHT22;47004;51.366;12.348;2024-03-02T01:42:59;6.70;99.90
18191;DHT22;47004;51.366;12.348;2024-03-02T01:45:01;6.70;99.90
18191;DHT22;47004;51.366;12.348;2024-03-02T01:47:04;6.70;99.90
18191;DHT22;47004;51.366;12.348;2024-03-02T01:49:05;6.60;99.90
18191;DHT22;47004;51.366;12.348;2024-03-02T01:51:08;6.60;99.90
18191;DHT22;47004;51.366;12.348;2024-03-02T01:53:11;6.60;99.90
18191;DHT22;47004;51.366;12.348;2024-03-02T01:55:13;6.60;99.90
18191;DHT22;47004;51.366;12.348;2024-03-02T01:57:14;6.60;99.90
18191;DHT22;47004;51.366;12.348;2024-03-02T01:59:16;6.60;99.90
18191;DHT22;47004;51.366;12.348;2024-03-02T02:01:18;6.60;99.90
18191;DHT22;47004;51.366;12.348;2024-03-02T02:03:20;6.60;99.90
18191;DHT22;47004;51.366;12.348;2024-03-02T02:05:24;6.60;99.90
18191;DHT22;47004;51.366;12.348;2024-03-02T02:07:29;6.60;99.90
18191;DHT22;47004;51.366;12.348;2024-03-02T02:09:32;6.60;99.90
18191;DHT22;47004;51.366;12.348;2024-03-02T02:11:34;6.60;99.90
18191;DHT22;47004;51.366;12.348;2024-03-02T02:13:38;6.60;99.90
18191;DHT22;47004;51.366;12.348;2024-03-02T02:15:40;6.60;99.90
18191;DHT22;47004;51.366;12.348;2024-03-02T02:17:42;6.60;99.90
18191;DHT22;47004;51.366;12.348;2024-03-02T02:19:43;6.60;99.90
18191;DHT22;47004;51.366;12.348;2024-03-02T02:21:47;6.60;99.90
18191;DHT22;47004;51.366;12.348;2024-03-02T02:23:48;6.60;99.90
18191;DHT22;47004;51.366;12.348;2024-03-02T02:25:51;6.60;99.90
18191;DHT22;47004;51.366;12.348;2024-03-02T02:27:53;6.60;99.90
18191;DHT22;47004;51.366;12.348;2024-03-02T02:29:55;6.60;99.90
18191;DHT22;47004;51.366;12.348;2024-03-02T02:31:57;6.60;99.90
18191;DHT22;47004;51.366;12.348;2024-03-02T02:33:58;6.50;99.90
18191;DHT22;47004;51.366;12.348;2024-03-02T02:36:00;6.60;99.90
18191;DHT22;47004;51.366;12.348;2024-03-02T02:38:04;6.60;99.90
18191;DHT22;47004;51.366;12.348;2024-03-02T02:40:07;6.50;99.90
18191;DHT22;47004;51.366;12.348;2024-03-02T02:42:09;6.50;99.90
18191;DHT22;47004;51.366;12.348;2024-03-02T02:44:11;6.60;99.90
18191;DHT22;47004;51.366;12.348;2024-03-02T02:46:14;6.50;99.90
18191;DHT22;47004;51.366;12.348;2024-03-02T02:48:15;6.50;99.90
18191;DHT22;47004;51.366;12.348;2024-03-02T02:50:17;6.60;99.90
18191;DHT22;47004;51.366;12.348;2024-03-02T02:52:19;6.60;99.90
18191;DHT22;47004;51.366;12.348;2024-03-02T02:54:23;6.50;99.90
18191;DHT22;47004;51.366;12.348;2024-03-02T02:56:25;6.60;99.90
18191;DHT22;47004;51.366;12.348;2024-03-02T02:58:28;6.50;99.90
18191;DHT22;47004;51.366;12.348;2024-03-02T03:00:30;6.50;99.90
18191;DHT22;47004;51.366;12.348;2024-03-02T03:02:32;6.50;99.90
18191;DHT22;47004;51.366;12.348;2024-03-02T03:04:33;6.50;99.90
18191;DHT22;47004;51.366;12.348;2024-03-02T03:06:36;6.50;99.90
18191;DHT22;47004;51.366;12.348;2024-03-02T03:08:38;6.50;99.90
18191;DHT22;47004;51.366;12.348;2024-03-02T03:10:40;6.50;99.90
18191;DHT22;47004;51.366;12.348;2024-03-02T03:12:42;6.60;99.90
18191;DHT22;47004;51.366;12.348;2024-03-02T03:14:44;6.50;99.90
18191;DHT22;47004;51.366;12.348;2024-03-02T03:16:46;6.50;99.90
18191;DHT22;47004;51.366;12.348;2024-03-02T03:18:49;6.50;99.90
18191;DHT22;47004;51.366;12.348;2024-03-02T03:20:52;6.50;99.90
18191;DHT22;47004;51.366;12.348;2024-03-02T03:22:54;6.50;99.90
18191;DHT22;47004;51.366;12.348;2024-03-02T03:24:55;6.50;99.90
18191;DHT22;47004;51.366;12.348;2024-03-02T03:26:58;6.50;99.90
18191;DHT22;47004;51.366;12.348;2024-03-02T03:29:00;6.50;99.90
18191;DHT22;47004;51.366;12.348;2024-03-02T03:31:03;6.50;99.90
18191;DHT22;47004;51.366;12.348;2024-03-02T03:33:05;6.50;99.90
18191;DHT22;47004;51.366;12.348;2024-03-02T03:35:11;6.60;99.90
18191;DHT22;47004;51.366;12.348;2024-03-02T03:37:15;6.60;99.90
18191;DHT22;47004;51.366;12.348;2024-03-02T03:39:17;6.50;99.90
18191;DHT22;47004;51.366;12.348;2024-03-02T03:41:18;6.50;99.90
18191;DHT22;47004;51.366;12.348;2024-03-02T03:43:21;6.50;99.90
18191;DHT22;47004;51.366;12.348;2024-03-02T03:45:23;6.50;99.90
18191;DHT22;47004;51.366;12.348;2024-03-02T03:47:26;6.50;99.90
18191;DHT22;47004;51.366;12.348;2024-03-02T03:49:28;6.60;99.90
18191;DHT22;47004;51.366;12.348;2024-03-02T03:51:30;6.50;99.90
18191;DHT22;47004;51.366;12.348;2024-03-02T03:53:34;6.60;99.90
18191;DHT22;47004;51.366;12.348;2024-03-02T03:55:36;6.60;99.90
18191;DHT22;47004;51.366;12.348;2024-03-02T03:57:38;6.60;99.90
18191;DHT22;47004;51.366;12.348;2024-03-02T03:59:40;6.60;99.90
18191;DHT22;47004;51.366;12.348;2024-03-02T04:01:42;6.60;99.90
18191;DHT22;47004;51.366;12.348;2024-03-02T04:03:44;6.60;99.90
18191;DHT22;47004;51.366;12.348;2024-03-02T04:05:46;6.50;99.90
18191;DHT22;47004;51.366;12.348;2024-03-02T04:07:47;6.60;99.90
18191;DHT22;47004;51.366;12.348;2024-03-02T04:09:49;6.50;99.90
18191;DHT22;47004;51.366;12.348;2024-03-02T04:11:51;6.60;99.90
18191;DHT22;47004;51.366;12.348;2024-03-02T04:13:53;6.50;99.90
18191;DHT22;47004;51.366;12.348;2024-03-02T04:15:57;6.50;99.90
18191;DHT22;47004;51.366;12.348;2024-03-02T04:17:58;6.50;99.90
18191;DHT22;47004;51.366;12.348;2024-03-02T04:20:00;6.50;99.90
18191;DHT22;47004;51.366;12.348;2024-03-02T04:22:05;6.50;99.90
18191;DHT22;47004;51.366;12.348;2024-03-02T04:24:06;6.50;99.90
18191;DHT22;47004;51.366;12.348;2024-03-02T04:26:08;6.40;99.90
18191;DHT22;47004;51.366;12.348;2024-03-02T04:28:10;6.40;99.90
18191;DHT22;47004;51.366;12.348;2024-03-02T04:30:13;6.50;99.90
18191;DHT22;47004;51.366;12.348;2024-03-02T04:32:16;6.50;99.90
18191;DHT22;47004;51.366;12.348;2024-03-02T04:34:17;6.50;99.90
18191;DHT22;47004;51.366;12.348;2024-03-02T04:36:19;6.40;99.90
18191;DHT22;47004;51.366;12.348;2024-03-02T04:38:22;6.40;99.90
18191;DHT22;47004;51.366;12.348;2024-03-02T04:40:24;6.40;99.90
18191;DHT22;47004;51.366;12.348;2024-03-02T04:42:25;6.40;99.90
18191;DHT22;47004;51.366;12.348;2024-03-02T04:44:27;6.40;99.90
18191;DHT22;47004;51.366;12.348;2024-03-02T04:46:29;6.40;99.90
18191;DHT22;47004;51.366;12.348;2024-03-02T04:48:32;6.40;99.90
18191;DHT22;47004;51.366;12.348;2024-03-02T04:50:34;6.40;99.90
18191;DHT22;47004;51.366;12.348;2024-03-02T04:52:36;6.40;99.90
18191;DHT22;47004;51.366;12.348;2024-03-02T04:54:38;6.40;99.90
18191;DHT22;47004;51.366;12.348;2024-03-02T04:56:54;6.40;99.90
18191;DHT22;47004;51.366;12.348;2024-03-02T04:58:56;6.40;99.90
18191;DHT22;47004;51.366;12.348;2024-03-02T05:00:57;6.40;99.90
18191;DHT22;47004;51.366;12.348;2024-03-02T05:02:59;6.30;99.90
18191;DHT22;47004;51.366;12.348;2024-03-02T05:05:05;6.40;99.90
18191;DHT22;47004;51.366;12.348;2024-03-02T05:07:09;6.40;99.90
18191;DHT22;47004;51.366;12.348;2024-03-02T05:09:11;6.40;99.90
18191;DHT22;47004;51.366;12.348;2024-03-02T05:11:11;6.40;99.90
18191;DHT22;47004;51.366;12.348;2024-03-02T05:13:53;6.40;99.90
18191;DHT22;47004;51.366;12.348;2024-03-02T05:15:57;6.40;99.90
18191;DHT22;47004;51.366;12.348;2024-03-02T05:18:01;6.40;99.90
18191;DHT22;47004;51.366;12.348;2024-03-02T05:20:08;6.30;99.90
18191;DHT22;47004;51.366;12.348;2024-03-02T05:22:10;6.40;99.90
18191;DHT22;47004;51.366;12.348;2024-03-02T05:24:14;6.40;99.90
18191;DHT22;47004;51.366;12.348;2024-03-02T05:26:16;6.40;99.90
18191;DHT22;47004;51.366;12.348;2024-03-02T05:28:18;6.30;99.90
18191;DHT22;47004;51.366;12.348;2024-03-02T05:30:20;6.30;99.90
18191;DHT22;47004;51.366;12.348;2024-03-02T05:32:22;6.40;99.90
18191;DHT22;47004;51.366;12.348;2024-03-02T05:34:24;6.30;99.90
18191;DHT22;47004;51.366;12.348;2024-03-02T05:36:27;6.30;99.90
18191;DHT22;47004;51.366;12.348;2024-03-02T05:38:29;6.50;99.90
18191;DHT22;47004;51.366;12.348;2024-03-02T05:40:30;6.30;99.90
18191;DHT22;47004;51.366;12.348;2024-03-02T05:42:32;6.30;99.90
18191;DHT22;47004;51.366;12.348;2024-03-02T05:44:34;6.30;99.90
18191;DHT22;47004;51.366;12.348;2024-03-02T05:46:36;6.30;99.90
18191;DHT22;47004;51.366;12.348;2024-03-02T05:48:38;6.30;99.90
18191;DHT22;47004;51.366;12.348;2024-03-02T05:50:43;6.30;99.90
18191;DHT22;47004;51.366;12.348;2024-03-02T05:52:46;6.30;99.90
18191;DHT22;47004;51.366;12.348;2024-03-02T05:54:48;6.30;99.90
18191;DHT22;47004;51.366;12.348;2024-03-02T05:56:50;6.40;99.90
18191;DHT22;47004;51.366;12.348;2024-03-02T05:58:52;6.30;99.90
18191;DHT22;47004;51.366;12.348;2024-03-02T06:01:07;6.30;99.90
18191;DHT22;47004;51.366;12.348;2024-03-02T06:03:09;6.40;99.90
18191;DHT22;47004;51.366;12.348;2024-03-02T06:05:11;6.30;99.90
18191;DHT22;47004;51.366;12.348;2024-03-02T06:07:12;6.40;99.90
18191;DHT22;47004;51.366;12.348;2024-03-02T06:09:19;6.40;99.90
18191;DHT22;47004;51.366;12.348;2024-03-02T06:11:21;6.70;99.90
18191;DHT22;47004;51.366;12.348;2024-03-02T06:13:23;6.40;99.90
18191;DHT22;47004;51.366;12.348;2024-03-02T06:15:28;6.40;99.90
18191;DHT22;47004;51.366;12.348;2024-03-02T06:17:29;6.40;99.90
18191;DHT22;47004;51.366;12.348;2024-03-02T06:19:31;6.40;99.90
18191;DHT22;47004;51.366;12.348;2024-03-02T06:21:33;6.60;99.90
18191;DHT22;47004;51.366;12.348;2024-03-02T06:23:35;6.40;99.90
18191;DHT22;47004;51.366;12.348;2024-03-02T06:25:37;6.40;99.90
18191;DHT22;47004;51.366;12.348;2024-03-02T06:27:39;6.40;99.90
18191;DHT22;47004;51.366;12.348;2024-03-02T06:29:40;6.50;99.90
18191;DHT22;47004;51.366;12.348;2024-03-02T06:31:42;6.60;99.90
18191;DHT22;47004;51.366;12.348;2024-03-02T06:33:44;6.50;99.90
18191;DHT22;47004;51.366;12.348;2024-03-02T06:35:46;6.50;99.90
18191;DHT22;47004;51.366;12.348;2024-03-02T06:37:49;6.60;99.90
18191;DHT22;47004;51.366;12.348;2024-03-02T06:39:51;6.50;99.90
18191;DHT22;47004;51.366;12.348;2024-03-02T06:41:55;6.50;99.90
18191;DHT22;47004;51.366;12.348;2024-03-02T06:43:56;6.60;99.90
18191;DHT22;47004;51.366;12.348;2024-03-02T06:46:00;6.60;99.90
18191;DHT22;47004;51.366;12.348;2024-03-02T06:48:02;6.60;99.90
18191;DHT22;47004;51.366;12.348;2024-03-02T06:50:05;6.60;99.90
18191;DHT22;47004;51.366;12.348;2024-03-02T06:52:07;6.70;99.90
18191;DHT22;47004;51.366;12.348;2024-03-02T06:54:10;6.70;99.90
18191;DHT22;47004;51.366;12.348;2024-03-02T06:56:11;6.70;99.90
18191;DHT22;47004;51.366;12.348;2024-03-02T06:58:16;6.70;99.90
18191;DHT22;47004;51.366;12.348;2024-03-02T07:00:19;6.70;99.90
18191;DHT22;47004;51.366;12.348;2024-03-02T07:02:22;6.70;99.90
18191;DHT22;47004;51.366;12.348;2024-03-02T07:04:23;6.80;99.90
18191;DHT22;47004;51.366;12.348;2024-03-02T07:06:24;6.80;99.90
18191;DHT22;47004;51.366;12.348;2024-03-02T07:08:26;6.80;99.90
18191;DHT22;47004;51.366;12.348;2024-03-02T07:10:27;6.90;99.90
18191;DHT22;47004;51.366;12.348;2024-03-02T07:12:29;6.80;99.90
18191;DHT22;47004;51.366;12.348;2024-03-02T07:14:33;6.90;99.90
18191;DHT22;47004;51.366;12.348;2024-03-02T07:16:49;6.90;99.90
18191;DHT22;47004;51.366;12.348;2024-03-02T07:18:51;6.90;99.90
18191;DHT22;47004;51.366;12.348;2024-03-02T07:20:52;6.90;99.90
18191;DHT22;47004;51.366;12.348;2024-03-02T07:22:54;6.90;99.90
18191;DHT22;47004;51.366;12.348;2024-03-02T07:24:56;7.00;99.90
18191;DHT22;47004;51.366;12.348;2024-03-02T07:27:01;7.10;99.90
18191;DHT22;47004;51.366;12.348;2024-03-02T07:29:04;7.00;99.90
18191;DHT22;47004;51.366;12.348;2024-03-02T07:31:07;7.10;99.90
18191;DHT22;47004;51.366;12.348;2024-03-02T07:33:10;7.10;99.90
18191;DHT22;47004;51.366;12.348;2024-03-02T07:35:12;7.20;99.90
18191;DHT22;47004;51.366;12.348;2024-03-02T07:37:15;7.20;99.90
18191;DHT22;47004;51.366;12.348;2024-03-02T07:39:17;7.30;99.90
18191;DHT22;47004;51.366;12.348;2024-03-02T07:41:20;7.30;99.90
18191;DHT22;47004;51.366;12.348;2024-03-02T07:43:22;7.40;99.90
18191;DHT22;47004;51.366;12.348;2024-03-02T07:45:24;7.40;99.90
18191;DHT22;47004;51.366;12.348;2024-03-02T07:47:27;7.50;99.90
18191;DHT22;47004;51.366;12.348;2024-03-02T07:49:29;7.50;99.90
18191;DHT22;47004;51.366;12.348;2024-03-02T07:51:31;7.60;99.90
18191;DHT22;47004;51.366;12.348;2024-03-02T07:53:32;7.60;99.90
18191;DHT22;47004;51.366;12.348;2024-03-02T07:55:34;7.70;99.90
18191;DHT22;47004;51.366;12.348;2024-03-02T07:57:36;7.70;99.90
18191;DHT22;47004;51.366;12.348;2024-03-02T07:59:37;7.70;99.90
18191;DHT22;47004;51.366;12.348;2024-03-02T08:01:39;7.80;99.90
18191;DHT22;47004;51.366;12.348;2024-03-02T08:03:46;7.80;99.90
18191;DHT22;47004;51.366;12.348;2024-03-02T08:05:48;7.80;99.90
18191;DHT22;47004;51.366;12.348;2024-03-02T08:07:50;7.90;99.90
18191;DHT22;47004;51.366;12.348;2024-03-02T08:09:53;7.90;99.90
18191;DHT22;47004;51.366;12.348;2024-03-02T08:11:55;8.00;99.90
18191;DHT22;47004;51.366;12.348;2024-03-02T08:13:58;8.10;99.90
18191;DHT22;47004;51.366;12.348;2024-03-02T08:16:00;8.10;99.90
18191;DHT22;47004;51.366;12.348;2024-03-02T08:18:04;8.20;99.90
18191;DHT22;47004;51.366;12.348;2024-03-02T08:20:09;8.20;99.90
18191;DHT22;47004;51.366;12.348;2024-03-02T08:22:11;8.30;99.90
18191;DHT22;47004;51.366;12.348;2024-03-02T08:24:13;8.30;99.90
18191;DHT22;47004;51.366;12.348;2024-03-02T08:26:14;8.40;99.90
18191;DHT22;47004;51.366;12.348;2024-03-02T08:28:17;8.50;99.90
18191;DHT22;47004;51.366;12.348;2024-03-02T08:30:19;8.50;99.90
18191;DHT22;47004;51.366;12.348;2024-03-02T08:32:21;8.50;99.90
18191;DHT22;47004;51.366;12.348;2024-03-02T08:34:23;8.60;99.90
18191;DHT22;47004;51.366;12.348;2024-03-02T08:36:27;8.60;99.90
18191;DHT22;47004;51.366;12.348;2024-03-02T08:38:27;8.70;99.90
18191;DHT22;47004;51.366;12.348;2024-03-02T08:40:30;8.70;99.90
18191;DHT22;47004;51.366;12.348;2024-03-02T08:42:31;8.70;99.90
18191;DHT22;47004;51.366;12.348;2024-03-02T08:44:32;8.80;99.90
18191;DHT22;47004;51.366;12.348;2024-03-02T08:46:34;8.80;99.90
18191;DHT22;47004;51.366;12.348;2024-03-02T08:48:36;8.90;99.90
18191;DHT22;47004;51.366;12.348;2024-03-02T08:50:38;8.90;99.90
18191;DHT22;47004;51.366;12.348;2024-03-02T08:52:42;9.00;99.90
18191;DHT22;47004;51.366;12.348;2024-03-02T08:54:43;9.00;99.90
18191;DHT22;47004;51.366;12.348;2024-03-02T08:56:45;9.00;99.90
18191;DHT22;47004;51.366;12.348;2024-03-02T08:58:47;9.10;99.90
18191;DHT22;47004;51.366;12.348;2024-03-02T09:00:49;9.10;99.90
18191;DHT22;47004;51.366;12.348;2024-03-02T09:02:50;9.10;99.90
18191;DHT22;47004;51.366;12.348;2024-03-02T09:04:52;9.10;99.90
18191;DHT22;47004;51.366;12.348;2024-03-02T09:06:55;9.10;99.90
18191;DHT22;47004;51.366;12.348;2024-03-02T09:08:57;9.20;99.90
18191;DHT22;47004;51.366;12.348;2024-03-02T09:10:59;9.20;99.90
18191;DHT22;47004;51.366;12.348;2024-03-02T09:13:01;9.20;99.90
18191;DHT22;47004;51.366;12.348;2024-03-02T09:15:04;9.30;99.90
18191;DHT22;47004;51.366;12.348;2024-03-02T09:17:06;9.40;99.90
18191;DHT22;47004;51.366;12.348;2024-03-02T09:19:08;9.40;99.90
18191;DHT22;47004;51.366;12.348;2024-03-02T09:21:11;9.50;99.90
18191;DHT22;47004;51.366;12.348;2024-03-02T09:23:13;9.50;99.90
18191;DHT22;47004;51.366;12.348;2024-03-02T09:25:18;9.60;99.90
18191;DHT22;47004;51.366;12.348;2024-03-02T09:27:20;9.70;99.90
18191;DHT22;47004;51.366;12.348;2024-03-02T09:29:23;9.70;99.90
18191;DHT22;47004;51.366;12.348;2024-03-02T09:31:26;9.80;99.90
18191;DHT22;47004;51.366;12.348;2024-03-02T09:33:28;9.80;99.90
18191;DHT22;47004;51.366;12.348;2024-03-02T09:35:30;9.90;99.90
18191;DHT22;47004;51.366;12.348;2024-03-02T09:37:32;9.90;99.90
18191;DHT22;47004;51.366;12.348;2024-03-02T09:39:34;10.00;99.90
18191;DHT22;47004;51.366;12.348;2024-03-02T09:41:38;10.00;99.90
18191;DHT22;47004;51.366;12.348;2024-03-02T09:43:40;10.10;99.90
18191;DHT22;47004;51.366;12.348;2024-03-02T09:45:42;10.20;99.90
18191;DHT22;47004;51.366;12.348;2024-03-02T09:47:47;10.20;99.90
18191;DHT22;47004;51.366;12.348;2024-03-02T09:49:50;10.30;99.90
18191;DHT22;47004;51.366;12.348;2024-03-02T09:51:52;10.30;99.90
18191;DHT22;47004;51.366;12.348;2024-03-02T09:53:55;10.30;99.90
18191;DHT22;47004;51.366;12.348;2024-03-02T09:55:57;10.40;99.90
18191;DHT22;47004;51.366;12.348;2024-03-02T09:58:07;10.30;99.90
18191;DHT22;47004;51.366;12.348;2024-03-02T10:00:10;10.40;99.90
18191;DHT22;47004;51.366;12.348;2024-03-02T10:02:15;10.40;99.90
18191;DHT22;47004;51.366;12.348;2024-03-02T10:04:16;10.40;99.90
18191;DHT22;47004;51.366;12.348;2024-03-02T10:06:19;10.40;99.90
18191;DHT22;47004;51.366;12.348;2024-03-02T10:08:21;10.40;99.90
18191;DHT22;47004;51.366;12.348;2024-03-02T10:10:23;10.50;99.90
18191;DHT22;47004;51.366;12.348;2024-03-02T10:12:25;10.50;99.90
18191;DHT22;47004;51.366;12.348;2024-03-02T10:14:29;10.60;99.90
18191;DHT22;47004;51.366;12.348;2024-03-02T10:16:31;10.60;99.90
18191;DHT22;47004;51.366;12.348;2024-03-02T10:18:33;10.80;99.90
18191;DHT22;47004;51.366;12.348;2024-03-02T10:20:35;10.90;99.90
18191;DHT22;47004;51.366;12.348;2024-03-02T10:22:37;11.00;99.90
18191;DHT22;47004;51.366;12.348;2024-03-02T10:24:39;11.10;99.90
18191;DHT22;47004;51.366;12.348;2024-03-02T10:26:41;11.20;99.90
18191;DHT22;47004;51.366;12.348;2024-03-02T10:28:46;11.30;99.90
18191;DHT22;47004;51.366;12.348;2024-03-02T10:30:50;11.40;99.90
18191;DHT22;47004;51.366;12.348;2024-03-02T10:32:53;11.60;99.90
18191;DHT22;47004;51.366;12.348;2024-03-02T10:34:56;11.60;99.90
18191;DHT22;47004;51.366;12.348;2024-03-02T10:36:58;11.80;99.90
18191;DHT22;47004;51.366;12.348;2024-03-02T10:39:02;11.90;99.90
18191;DHT22;47004;51.366;12.348;2024-03-02T10:41:04;12.00;99.90
18191;DHT22;47004;51.366;12.348;2024-03-02T10:43:07;12.10;99.90
18191;DHT22;47004;51.366;12.348;2024-03-02T10:45:10;12.20;99.90
18191;DHT22;47004;51.366;12.348;2024-03-02T10:47:15;12.30;99.90
18191;DHT22;47004;51.366;12.348;2024-03-02T10:49:19;12.30;99.90
18191;DHT22;47004;51.366;12.348;2024-03-02T10:51:22;12.30;99.90
18191;DHT22;47004;51.366;12.348;2024-03-02T10:53:24;12.40;99.90
18191;DHT22;47004;51.366;12.348;2024-03-02T10:55:26;12.40;99.90
18191;DHT22;47004;51.366;12.348;2024-03-02T10:59:52;12.60;99.90
18191;DHT22;47004;51.366;12.348;2024-03-02T11:01:57;12.70;99.90
18191;DHT22;47004;51.366;12.348;2024-03-02T11:04:02;12.80;99.90
18191;DHT22;47004;51.366;12.348;2024-03-02T11:06:08;12.80;99.90
18191;DHT22;47004;51.366;12.348;2024-03-02T11:08:12;12.90;99.90
18191;DHT22;47004;51.366;12.348;2024-03-02T11:10:17;13.00;99.90
18191;DHT22;47004;51.366;12.348;2024-03-02T11:12:23;13.10;99.90
18191;DHT22;47004;51.366;12.348;2024-03-02T11:14:30;13.10;99.90
18191;DHT22;47004;51.366;12.348;2024-03-02T11:16:34;13.20;99.90
18191;DHT22;47004;51.366;12.348;2024-03-02T11:18:36;13.20;99.90
18191;DHT22;47004;51.366;12.348;2024-03-02T11:20:41;13.20;99.90
18191;DHT22;47004;51.366;12.348;2024-03-02T11:22:43;13.30;99.90
18191;DHT22;47004;51.366;12.348;2024-03-02T11:24:49;13.50;99.90
18191;DHT22;47004;51.366;12.348;2024-03-02T11:26:51;13.60;99.90
18191;DHT22;47004;51.366;12.348;2024-03-02T11:28:52;13.70;99.90
18191;DHT22;47004;51.366;12.348;2024-03-02T11:30:54;13.70;99.90
18191;DHT22;47004;51.366;12.348;2024-03-02T11:32:55;13.80;99.90
18191;DHT22;47004;51.366;12.348;2024-03-02T11:34:57;13.90;99.90
18191;DHT22;47004;51.366;12.348;2024-03-02T11:37:01;14.00;99.90
18191;DHT22;47004;51.366;12.348;2024-03-02T11:39:04;14.00;99.90
18191;DHT22;47004;51.366;12.348;2024-03-02T11:41:07;14.10;99.90
18191;DHT22;47004;51.366;12.348;2024-03-02T11:43:11;14.20;99.90
18191;DHT22;47004;51.366;12.348;2024-03-02T11:45:12;14.30;99.90
18191;DHT22;47004;51.366;12.348;2024-03-02T11:47:17;14.40;99.90
18191;DHT22;47004;51.366;12.348;2024-03-02T11:49:36;14.50;99.90
18191;DHT22;47004;51.366;12.348;2024-03-02T11:51:53;14.60;99.90
18191;DHT22;47004;51.366;12.348;2024-03-02T11:54:04;14.80;99.90
18191;DHT22;47004;51.366;12.348;2024-03-02T11:56:09;14.90;99.90
18191;DHT22;47004;51.366;12.348;2024-03-02T11:58:12;15.00;99.90
18191;DHT22;47004;51.366;12.348;2024-03-02T12:00:17;15.30;99.90
18191;DHT22;47004;51.366;12.348;2024-03-02T12:02:20;15.40;99.90
18191;DHT22;47004;51.366;12.348;2024-03-02T12:04:21;15.60;99.90
18191;DHT22;47004;51.366;12.348;2024-03-02T12:06:24;15.80;99.90
18191;DHT22;47004;51.366;12.348;2024-03-02T12:08:26;16.00;99.90
18191;DHT22;47004;51.366;12.348;2024-03-02T12:10:29;16.20;99.90
18191;DHT22;47004;51.366;12.348;2024-03-02T12:12:31;16.40;99.90
18191;DHT22;47004;51.366;12.348;2024-03-02T12:14:34;16.70;99.90
18191;DHT22;47004;51.366;12.348;2024-03-02T12:16:35;17.10;99.90
18191;DHT22;47004;51.366;12.348;2024-03-02T12:18:41;17.60;99.90
18191;DHT22;47004;51.366;12.348;2024-03-02T12:20:44;18.30;99.90
18191;DHT22;47004;51.366;12.348;2024-03-02T12:22:46;19.00;99.90
18191;DHT22;47004;51.366;12.348;2024-03-02T12:24:48;19.50;99.90
18191;DHT22;47004;51.366;12.348;2024-03-02T12:26:52;19.70;94.70
18191;DHT22;47004;51.366;12.348;2024-03-02T12:28:54;19.70;96.10
18191;DHT22;47004;51.366;12.348;2024-03-02T12:30:56;20.00;90.80
18191;DHT22;47004;51.366;12.348;2024-03-02T12:32:58;20.30;82.20
18191;DHT22;47004;51.366;12.348;2024-03-02T12:34:59;20.60;71.10
18191;DHT22;47004;51.366;12.348;2024-03-02T12:37:01;20.80;66.00
18191;DHT22;47004;51.366;12.348;2024-03-02T12:39:04;21.10;65.00
18191;DHT22;47004;51.366;12.348;2024-03-02T12:41:05;21.40;62.10
18191;DHT22;47004;51.366;12.348;2024-03-02T12:43:08;21.50;55.80
18191;DHT22;47004;51.366;12.348;2024-03-02T12:45:12;21.70;55.80
18191;DHT22;47004;51.366;12.348;2024-03-02T12:47:13;22.10;54.00
18191;DHT22;47004;51.366;12.348;2024-03-02T12:49:15;22.40;48.20
18191;DHT22;47004;51.366;12.348;2024-03-02T12:51:19;22.70;46.60
18191;DHT22;47004;51.366;12.348;2024-03-02T12:53:22;23.00;46.60
18191;DHT22;47004;51.366;12.348;2024-03-02T12:55:24;23.30;44.90
18191;DHT22;47004;51.366;12.348;2024-03-02T12:57:28;23.70;43.60